Terminal Aerodrome Forecast
Issued by NWS Wilmington, OH

Home | Current Version | Previous Version | Text Only | Print | Product List | Glossary On
Versions: 1 2 3 4 5 6 7 8 9 10 11 12 13 14 15
166
FTUS41 KILN 132330
TAFDAY
TAF
KDAY 132330Z 1400/1424 31005KT P6SM FEW250
     FM140900 VRB03KT P6SM BKN200
     FM141500 14009KT P6SM OVC100
     FM141900 13010KT 4SM -SN BKN035 OVC050
     FM142100 12011KT 3SM -SN OVC020=

USA.gov is the U.S. government's official web portal to all federal, state and local government web resources and services.